createdAt,value
2023-04-11T08:14:47.310Z,14.27
2023-04-11T08:17:50.059Z,14.27
2023-04-11T08:20:52.855Z,13.83
2023-04-11T08:23:55.447Z,14.04
2023-04-11T08:26:57.835Z,14.01
2023-04-11T08:30:00.316Z,14.05
2023-04-11T08:33:02.432Z,14.04
2023-04-11T08:36:09.680Z,14.13
2023-04-11T08:39:11.932Z,14.30
2023-04-11T08:42:23.227Z,14.47
2023-04-11T08:45:25.573Z,14.41
2023-04-11T08:48:28.331Z,14.34
2023-04-11T08:51:31.469Z,14.38
2023-04-11T08:54:33.858Z,14.51
2023-04-11T08:57:38.158Z,14.50
2023-04-11T09:00:40.648Z,14.40
2023-04-11T09:04:02.483Z,14.37
2023-04-11T09:07:05.704Z,14.44
2023-04-11T09:10:20.902Z,14.61
2023-04-11T09:13:24.347Z,14.56
2023-04-11T09:16:27.034Z,14.51
2023-04-11T09:19:31.791Z,14.54
2023-04-11T09:22:37.044Z,14.63
2023-04-11T09:25:45.572Z,14.65
2023-04-11T09:28:54.897Z,14.78
2023-04-11T09:31:57.406Z,14.86
2023-04-11T09:35:18.528Z,14.95
2023-04-11T09:38:28.038Z,14.97
2023-04-11T09:41:32.312Z,15.18
2023-04-11T09:44:37.437Z,15.12
2023-04-11T09:47:39.643Z,14.95
2023-04-11T09:50:43.076Z,14.95
2023-04-11T09:53:45.570Z,15.01
2023-04-11T09:56:48.995Z,15.02
2023-04-11T09:59:52.853Z,15.10
2023-04-11T10:02:56.335Z,15.21
2023-04-11T10:05:58.898Z,15.15
2023-04-11T10:09:12.253Z,15.21
2023-04-11T10:12:31.554Z,15.31
2023-04-11T10:15:33.694Z,15.56
2023-04-11T10:18:37.072Z,15.78
2023-04-11T10:21:40.895Z,15.63
2023-04-11T10:25:16.752Z,15.63
2023-04-11T10:28:30.846Z,15.58
2023-04-11T10:32:05.756Z,15.54
2023-04-11T10:35:16.853Z,15.66
2023-04-11T10:38:48.250Z,15.91
2023-04-11T10:41:50.488Z,16.01
2023-04-11T10:45:14.508Z,16.10
2023-04-11T10:48:16.647Z,16.15
2023-04-11T10:51:30.123Z,16.02
2023-04-11T10:54:32.256Z,16.18
2023-04-11T10:58:03.518Z,16.15
2023-04-11T11:01:21.288Z,16.10
2023-04-11T11:04:36.594Z,16.26
2023-04-11T11:07:39.012Z,16.23
2023-04-11T11:10:43.503Z,16.34
2023-04-11T11:13:53.270Z,16.45
2023-04-11T11:16:55.896Z,16.51
2023-04-11T11:19:58.231Z,16.33
2023-04-11T11:23:02.707Z,16.28
2023-04-11T11:26:05.016Z,16.24
2023-04-11T11:29:08.334Z,16.23
2023-04-11T11:32:21.277Z,16.23
2023-04-11T11:35:24.727Z,16.27
2023-04-11T11:38:28.739Z,16.27
2023-04-11T11:41:33.518Z,16.40
2023-04-11T11:44:35.767Z,16.47
2023-04-11T11:47:56.633Z,16.48
2023-04-11T11:50:58.926Z,16.44
2023-04-11T11:54:11.248Z,16.44
2023-04-11T11:57:22.648Z,16.62
2023-04-11T12:00:27.081Z,16.48
2023-04-11T12:03:29.671Z,16.48
2023-04-11T12:06:32.386Z,16.50
2023-04-11T12:09:34.771Z,16.47
2023-04-11T12:12:41.909Z,16.48
2023-04-11T12:15:46.540Z,16.49
2023-04-11T12:18:48.656Z,16.57
2023-04-11T12:21:51.522Z,16.78
2023-04-11T12:25:06.385Z,16.81
2023-04-11T12:28:09.620Z,16.86
2023-04-11T12:31:12.474Z,16.96
2023-04-11T12:34:14.971Z,16.99
2023-04-11T12:37:17.138Z,17.05
2023-04-11T12:40:19.763Z,17.05
2023-04-11T12:43:21.935Z,17.14
2023-04-11T12:46:24.469Z,17.15
2023-04-11T12:49:28.189Z,17.03
2023-04-11T12:52:30.945Z,17.02
2023-04-11T12:55:34.883Z,17.06
2023-04-11T12:58:37.339Z,17.09
2023-04-11T13:01:39.517Z,17.04
2023-04-11T13:04:42.092Z,17.02
2023-04-11T13:07:45.421Z,17.00
2023-04-11T13:10:48.155Z,17.11
2023-04-11T13:13:51.596Z,17.07
2023-04-11T13:16:54.142Z,17.03
2023-04-11T13:19:56.264Z,17.00
2023-04-11T13:22:58.673Z,17.05
2023-04-11T13:26:01.079Z,16.95
2023-04-11T13:29:03.578Z,16.94
2023-04-11T13:32:06.606Z,16.83
2023-04-11T13:35:09.343Z,16.83
2023-04-11T13:38:12.537Z,16.81
2023-04-11T13:41:15.078Z,16.81
2023-04-11T13:44:17.695Z,16.88
2023-04-11T13:47:20.211Z,16.88
2023-04-11T13:50:22.368Z,16.88
2023-04-11T13:53:24.743Z,16.95
2023-04-11T13:56:27.193Z,16.97
2023-04-11T13:59:29.540Z,16.84
2023-04-11T14:02:31.737Z,16.83
2023-04-11T14:05:35.560Z,16.82
2023-04-11T14:08:37.723Z,16.85
2023-04-11T14:11:40.694Z,16.82
2023-04-11T14:14:42.775Z,16.77
2023-04-11T14:17:46.840Z,16.70
